sensor_id;sensor_type;location;lat;lon;timestamp;temperature;humidity
14347;DHT22;7257;52.158;9.968;2023-03-01T00:00:08;0.00;99.90
14347;DHT22;7257;52.158;9.968;2023-03-01T00:00:30;0.00;95.30
14347;DHT22;7257;52.158;9.968;2023-03-01T00:00:51;-0.10;99.50
14347;DHT22;7257;52.158;9.968;2023-03-01T00:01:13;0.00;89.40
14347;DHT22;7257;52.158;9.968;2023-03-01T00:01:34;-0.10;94.60
14347;DHT22;7257;52.158;9.968;2023-03-01T00:01:55;-0.10;94.10
14347;DHT22;7257;52.158;9.968;2023-03-01T00:02:17;-0.10;95.50
14347;DHT22;7257;52.158;9.968;2023-03-01T00:02:38;-0.20;94.60
14347;DHT22;7257;52.158;9.968;2023-03-01T00:02:59;-0.10;99.90
14347;DHT22;7257;52.158;9.968;2023-03-01T00:03:19;-0.10;99.90
14347;DHT22;7257;52.158;9.968;2023-03-01T00:03:41;-0.30;99.90
14347;DHT22;7257;52.158;9.968;2023-03-01T00:04:02;-0.20;96.20
14347;DHT22;7257;52.158;9.968;2023-03-01T00:04:23;-0.30;99.90
14347;DHT22;7257;52.158;9.968;2023-03-01T00:04:44;-0.20;99.90
14347;DHT22;7257;52.158;9.968;2023-03-01T00:05:07;-0.20;91.50
14347;DHT22;7257;52.158;9.968;2023-03-01T00:05:28;-0.30;93.00
14347;DHT22;7257;52.158;9.968;2023-03-01T00:05:50;-0.40;87.80
14347;DHT22;7257;52.158;9.968;2023-03-01T00:06:11;-0.40;87.00
14347;DHT22;7257;52.158;9.968;2023-03-01T00:06:33;-0.30;87.00
14347;DHT22;7257;52.158;9.968;2023-03-01T00:06:54;-0.30;88.40
14347;DHT22;7257;52.158;9.968;2023-03-01T00:07:15;-0.40;88.80
14347;DHT22;7257;52.158;9.968;2023-03-01T00:07:36;-0.40;92.80
14347;DHT22;7257;52.158;9.968;2023-03-01T00:07:58;-0.40;94.80
14347;DHT22;7257;52.158;9.968;2023-03-01T00:08:19;-0.30;98.80
14347;DHT22;7257;52.158;9.968;2023-03-01T00:08:40;-0.40;99.20
14347;DHT22;7257;52.158;9.968;2023-03-01T00:09:00;-0.40;99.90
14347;DHT22;7257;52.158;9.968;2023-03-01T00:09:21;-0.30;92.00
14347;DHT22;7257;52.158;9.968;2023-03-01T00:09:43;-0.40;97.20
14347;DHT22;7257;52.158;9.968;2023-03-01T00:10:06;-0.40;95.80
14347;DHT22;7257;52.158;9.968;2023-03-01T00:10:27;-0.40;89.70
14347;DHT22;7257;52.158;9.968;2023-03-01T00:10:48;-0.40;95.70
14347;DHT22;7257;52.158;9.968;2023-03-01T00:11:12;-0.40;97.10
14347;DHT22;7257;52.158;9.968;2023-03-01T00:11:34;-0.40;95.60
14347;DHT22;7257;52.158;9.968;2023-03-01T00:11:54;-0.40;91.20
14347;DHT22;7257;52.158;9.968;2023-03-01T00:12:15;-0.50;92.20
14347;DHT22;7257;52.158;9.968;2023-03-01T00:12:37;-0.60;95.40
14347;DHT22;7257;52.158;9.968;2023-03-01T00:12:58;-0.60;91.10
14347;DHT22;7257;52.158;9.968;2023-03-01T00:13:19;-0.60;92.70
14347;DHT22;7257;52.158;9.968;2023-03-01T00:13:41;-0.60;95.00
14347;DHT22;7257;52.158;9.968;2023-03-01T00:14:03;-0.60;91.10
14347;DHT22;7257;52.158;9.968;2023-03-01T00:14:27;-0.60;93.10
14347;DHT22;7257;52.158;9.968;2023-03-01T00:14:47;-0.60;94.50
14347;DHT22;7257;52.158;9.968;2023-03-01T00:15:08;-0.60;95.60
14347;DHT22;7257;52.158;9.968;2023-03-01T00:15:29;-0.60;94.30
14347;DHT22;7257;52.158;9.968;2023-03-01T00:15:50;-0.60;96.40
14347;DHT22;7257;52.158;9.968;2023-03-01T00:16:13;-0.60;91.20
14347;DHT22;7257;52.158;9.968;2023-03-01T00:16:38;-0.60;93.00
14347;DHT22;7257;52.158;9.968;2023-03-01T00:16:59;-0.60;92.40
14347;DHT22;7257;52.158;9.968;2023-03-01T00:17:20;-0.60;90.40
14347;DHT22;7257;52.158;9.968;2023-03-01T00:17:42;-0.60;93.90
14347;DHT22;7257;52.158;9.968;2023-03-01T00:18:03;-0.60;95.00
14347;DHT22;7257;52.158;9.968;2023-03-01T00:18:24;-0.60;87.10
14347;DHT22;7257;52.158;9.968;2023-03-01T00:18:45;-0.60;86.30
14347;DHT22;7257;52.158;9.968;2023-03-01T00:19:11;-0.60;91.70
14347;DHT22;7257;52.158;9.968;2023-03-01T00:19:32;-0.60;99.90
14347;DHT22;7257;52.158;9.968;2023-03-01T00:19:53;-0.60;99.90
14347;DHT22;7257;52.158;9.968;2023-03-01T00:20:14;-0.70;99.90
14347;DHT22;7257;52.158;9.968;2023-03-01T00:20:36;-0.70;99.90
14347;DHT22;7257;52.158;9.968;2023-03-01T00:20:58;-0.70;99.90
14347;DHT22;7257;52.158;9.968;2023-03-01T00:21:20;-0.70;99.90
14347;DHT22;7257;52.158;9.968;2023-03-01T00:21:42;-0.60;99.90
14347;DHT22;7257;52.158;9.968;2023-03-01T00:22:04;-0.70;99.90
14347;DHT22;7257;52.158;9.968;2023-03-01T00:22:27;-0.60;99.80
14347;DHT22;7257;52.158;9.968;2023-03-01T00:22:48;-0.60;92.60
14347;DHT22;7257;52.158;9.968;2023-03-01T00:23:09;-0.60;96.00
14347;DHT22;7257;52.158;9.968;2023-03-01T00:23:30;-0.60;96.30
14347;DHT22;7257;52.158;9.968;2023-03-01T00:23:53;-0.60;96.50
14347;DHT22;7257;52.158;9.968;2023-03-01T00:24:14;-0.60;99.50
14347;DHT22;7257;52.158;9.968;2023-03-01T00:24:35;-0.60;99.90
14347;DHT22;7257;52.158;9.968;2023-03-01T00:24:57;-0.60;99.90
14347;DHT22;7257;52.158;9.968;2023-03-01T00:25:17;-0.60;99.90
14347;DHT22;7257;52.158;9.968;2023-03-01T00:25:41;-0.60;99.90
14347;DHT22;7257;52.158;9.968;2023-03-01T00:26:05;-0.60;99.90
14347;DHT22;7257;52.158;9.968;2023-03-01T00:26:27;-0.60;99.90
14347;DHT22;7257;52.158;9.968;2023-03-01T00:26:52;-0.50;99.90
14347;DHT22;7257;52.158;9.968;2023-03-01T00:27:13;-0.60;99.90
14347;DHT22;7257;52.158;9.968;2023-03-01T00:27:34;-0.50;99.90
14347;DHT22;7257;52.158;9.968;2023-03-01T00:27:55;-0.50;99.90
14347;DHT22;7257;52.158;9.968;2023-03-01T00:28:16;-0.50;99.90
14347;DHT22;7257;52.158;9.968;2023-03-01T00:28:38;-0.50;99.90
14347;DHT22;7257;52.158;9.968;2023-03-01T00:29:00;-0.50;99.90
14347;DHT22;7257;52.158;9.968;2023-03-01T00:29:21;-0.50;99.90
14347;DHT22;7257;52.158;9.968;2023-03-01T00:29:41;-0.50;99.90
14347;DHT22;7257;52.158;9.968;2023-03-01T00:30:04;-0.50;99.90
14347;DHT22;7257;52.158;9.968;2023-03-01T00:30:25;-0.50;99.90
14347;DHT22;7257;52.158;9.968;2023-03-01T00:30:46;-0.40;99.90
14347;DHT22;7257;52.158;9.968;2023-03-01T00:31:10;-0.40;99.90
14347;DHT22;7257;52.158;9.968;2023-03-01T00:31:32;-0.40;99.90
14347;DHT22;7257;52.158;9.968;2023-03-01T00:31:54;-0.40;99.90
14347;DHT22;7257;52.158;9.968;2023-03-01T00:32:15;-0.40;99.90
14347;DHT22;7257;52.158;9.968;2023-03-01T00:32:36;-0.40;99.90
14347;DHT22;7257;52.158;9.968;2023-03-01T00:32:57;-0.40;97.00
14347;DHT22;7257;52.158;9.968;2023-03-01T00:33:19;-0.40;93.80
14347;DHT22;7257;52.158;9.968;2023-03-01T00:33:40;-0.40;93.10
14347;DHT22;7257;52.158;9.968;2023-03-01T00:34:04;-0.50;99.90
14347;DHT22;7257;52.158;9.968;2023-03-01T00:34:25;-0.50;99.90
14347;DHT22;7257;52.158;9.968;2023-03-01T00:34:47;-0.50;99.90
14347;DHT22;7257;52.158;9.968;2023-03-01T00:35:14;-0.50;99.90
14347;DHT22;7257;52.158;9.968;2023-03-01T00:35:35;-0.50;99.90
14347;DHT22;7257;52.158;9.968;2023-03-01T00:35:59;-0.50;98.70
14347;DHT22;7257;52.158;9.968;2023-03-01T00:36:20;-0.50;99.90
14347;DHT22;7257;52.158;9.968;2023-03-01T00:36:42;-0.50;99.90
14347;DHT22;7257;52.158;9.968;2023-03-01T00:37:03;-0.60;93.00
14347;DHT22;7257;52.158;9.968;2023-03-01T00:37:26;-0.60;99.90
14347;DHT22;7257;52.158;9.968;2023-03-01T00:37:46;-0.60;99.90
14347;DHT22;7257;52.158;9.968;2023-03-01T00:38:09;-0.60;99.90
14347;DHT22;7257;52.158;9.968;2023-03-01T00:38:30;-0.60;99.90
14347;DHT22;7257;52.158;9.968;2023-03-01T00:38:50;-0.60;99.90
14347;DHT22;7257;52.158;9.968;2023-03-01T00:39:13;-0.60;99.90
14347;DHT22;7257;52.158;9.968;2023-03-01T00:39:34;-0.50;99.90
14347;DHT22;7257;52.158;9.968;2023-03-01T00:39:56;-0.50;99.90
14347;DHT22;7257;52.158;9.968;2023-03-01T00:40:17;-0.50;99.90
14347;DHT22;7257;52.158;9.968;2023-03-01T00:40:38;-0.50;99.90
14347;DHT22;7257;52.158;9.968;2023-03-01T00:41:03;-0.50;99.90
14347;DHT22;7257;52.158;9.968;2023-03-01T00:41:24;-0.60;99.90
14347;DHT22;7257;52.158;9.968;2023-03-01T00:41:47;-0.60;99.90
14347;DHT22;7257;52.158;9.968;2023-03-01T00:42:08;-0.60;99.90
14347;DHT22;7257;52.158;9.968;2023-03-01T00:42:29;-0.60;99.90
14347;DHT22;7257;52.158;9.968;2023-03-01T00:42:50;-0.60;99.90
14347;DHT22;7257;52.158;9.968;2023-03-01T00:43:12;-0.60;99.90
14347;DHT22;7257;52.158;9.968;2023-03-01T00:43:33;-0.60;99.90
14347;DHT22;7257;52.158;9.968;2023-03-01T00:43:57;-0.60;99.90
14347;DHT22;7257;52.158;9.968;2023-03-01T00:44:17;-0.60;99.90
14347;DHT22;7257;52.158;9.968;2023-03-01T00:44:39;-0.60;99.90
14347;DHT22;7257;52.158;9.968;2023-03-01T00:45:00;-0.60;99.90
14347;DHT22;7257;52.158;9.968;2023-03-01T00:45:21;-0.60;99.90
14347;DHT22;7257;52.158;9.968;2023-03-01T00:45:42;-0.60;99.90
14347;DHT22;7257;52.158;9.968;2023-03-01T00:46:06;-0.60;95.50
14347;DHT22;7257;52.158;9.968;2023-03-01T00:46:28;-0.60;99.90
14347;DHT22;7257;52.158;9.968;2023-03-01T00:46:50;-0.60;88.80
14347;DHT22;7257;52.158;9.968;2023-03-01T00:47:11;-0.50;98.90
14347;DHT22;7257;52.158;9.968;2023-03-01T00:47:32;-0.50;99.90
14347;DHT22;7257;52.158;9.968;2023-03-01T00:47:54;-0.50;99.90
14347;DHT22;7257;52.158;9.968;2023-03-01T00:48:15;-0.50;99.90
14347;DHT22;7257;52.158;9.968;2023-03-01T00:48:36;-0.50;96.50
14347;DHT22;7257;52.158;9.968;2023-03-01T00:48:57;-0.50;96.30
14347;DHT22;7257;52.158;9.968;2023-03-01T00:49:22;-0.50;92.60
14347;DHT22;7257;52.158;9.968;2023-03-01T00:49:44;-0.50;97.90
14347;DHT22;7257;52.158;9.968;2023-03-01T00:50:06;-0.60;93.00
14347;DHT22;7257;52.158;9.968;2023-03-01T00:50:27;-0.60;90.10
14347;DHT22;7257;52.158;9.968;2023-03-01T00:50:48;-0.60;94.50
14347;DHT22;7257;52.158;9.968;2023-03-01T00:51:13;-0.50;99.90
14347;DHT22;7257;52.158;9.968;2023-03-01T00:51:34;-0.60;99.90
14347;DHT22;7257;52.158;9.968;2023-03-01T00:51:55;-0.60;98.80
14347;DHT22;7257;52.158;9.968;2023-03-01T00:52:15;-0.60;95.00
14347;DHT22;7257;52.158;9.968;2023-03-01T00:52:37;-0.50;94.70
14347;DHT22;7257;52.158;9.968;2023-03-01T00:52:58;-0.60;99.90
14347;DHT22;7257;52.158;9.968;2023-03-01T00:53:19;-0.60;99.90
14347;DHT22;7257;52.158;9.968;2023-03-01T00:53:41;-0.60;99.90
14347;DHT22;7257;52.158;9.968;2023-03-01T00:54:03;-0.50;99.90
14347;DHT22;7257;52.158;9.968;2023-03-01T00:54:24;-0.50;94.60
14347;DHT22;7257;52.158;9.968;2023-03-01T00:54:45;-0.50;93.50
14347;DHT22;7257;52.158;9.968;2023-03-01T00:55:07;-0.50;99.90
14347;DHT22;7257;52.158;9.968;2023-03-01T00:55:28;-0.50;99.90
14347;DHT22;7257;52.158;9.968;2023-03-01T00:55:49;-0.50;99.90
14347;DHT22;7257;52.158;9.968;2023-03-01T00:56:12;-0.50;99.90
14347;DHT22;7257;52.158;9.968;2023-03-01T00:56:33;-0.50;99.90
14347;DHT22;7257;52.158;9.968;2023-03-01T00:56:54;-0.50;93.20
14347;DHT22;7257;52.158;9.968;2023-03-01T00:57:15;-0.40;99.90
14347;DHT22;7257;52.158;9.968;2023-03-01T00:57:36;-0.50;99.90
14347;DHT22;7257;52.158;9.968;2023-03-01T00:57:57;-0.40;99.90
14347;DHT22;7257;52.158;9.968;2023-03-01T00:58:18;-0.50;99.90
14347;DHT22;7257;52.158;9.968;2023-03-01T00:58:39;-0.50;99.90
14347;DHT22;7257;52.158;9.968;2023-03-01T00:59:01;-0.40;99.90
14347;DHT22;7257;52.158;9.968;2023-03-01T00:59:23;-0.40;99.90
14347;DHT22;7257;52.158;9.968;2023-03-01T00:59:43;-0.40;99.90
14347;DHT22;7257;52.158;9.968;2023-03-01T01:00:05;-0.40;99.90
14347;DHT22;7257;52.158;9.968;2023-03-01T01:00:26;-0.40;99.90
14347;DHT22;7257;52.158;9.968;2023-03-01T01:00:47;-0.40;99.90
14347;DHT22;7257;52.158;9.968;2023-03-01T01:01:09;-0.40;99.90
14347;DHT22;7257;52.158;9.968;2023-03-01T01:01:37;-0.50;99.90
14347;DHT22;7257;52.158;9.968;2023-03-01T01:01:58;-0.50;99.90
14347;DHT22;7257;52.158;9.968;2023-03-01T01:02:19;-0.50;99.90
14347;DHT22;7257;52.158;9.968;2023-03-01T01:02:40;-0.60;99.90
14347;DHT22;7257;52.158;9.968;2023-03-01T01:03:01;-0.60;99.90
14347;DHT22;7257;52.158;9.968;2023-03-01T01:03:23;-0.60;99.90
14347;DHT22;7257;52.158;9.968;2023-03-01T01:03:46;-0.60;99.90
14347;DHT22;7257;52.158;9.968;2023-03-01T01:04:09;-0.60;99.90
14347;DHT22;7257;52.158;9.968;2023-03-01T01:04:30;-0.60;99.90
14347;DHT22;7257;52.158;9.968;2023-03-01T01:04:52;-0.50;99.90
14347;DHT22;7257;52.158;9.968;2023-03-01T01:05:14;-0.50;99.90
14347;DHT22;7257;52.158;9.968;2023-03-01T01:05:35;-0.60;99.90
14347;DHT22;7257;52.158;9.968;2023-03-01T01:05:56;-0.60;99.90
14347;DHT22;7257;52.158;9.968;2023-03-01T01:06:20;-0.60;99.90
14347;DHT22;7257;52.158;9.968;2023-03-01T01:06:43;-0.50;99.90
14347;DHT22;7257;52.158;9.968;2023-03-01T01:07:05;-0.60;99.90
14347;DHT22;7257;52.158;9.968;2023-03-01T01:07:26;-0.60;99.90
14347;DHT22;7257;52.158;9.968;2023-03-01T01:07:47;-0.60;99.90
14347;DHT22;7257;52.158;9.968;2023-03-01T01:08:08;-0.60;99.90
14347;DHT22;7257;52.158;9.968;2023-03-01T01:08:29;-0.60;99.90
14347;DHT22;7257;52.158;9.968;2023-03-01T01:08:51;-0.60;99.90
14347;DHT22;7257;52.158;9.968;2023-03-01T01:09:15;-0.60;99.90
14347;DHT22;7257;52.158;9.968;2023-03-01T01:09:37;-0.60;99.90
14347;DHT22;7257;52.158;9.968;2023-03-01T01:09:58;-0.60;99.90
14347;DHT22;7257;52.158;9.968;2023-03-01T01:10:19;-0.60;99.90
14347;DHT22;7257;52.158;9.968;2023-03-01T01:10:43;-0.60;99.90
14347;DHT22;7257;52.158;9.968;2023-03-01T01:11:04;-0.60;99.90
14347;DHT22;7257;52.158;9.968;2023-03-01T01:11:27;-0.60;99.90
14347;DHT22;7257;52.158;9.968;2023-03-01T01:11:50;-0.60;99.90
14347;DHT22;7257;52.158;9.968;2023-03-01T01:12:12;-0.60;99.90
14347;DHT22;7257;52.158;9.968;2023-03-01T01:12:33;-0.60;99.90
14347;DHT22;7257;52.158;9.968;2023-03-01T01:12:54;-0.70;99.90
14347;DHT22;7257;52.158;9.968;2023-03-01T01:13:15;-0.70;99.90
14347;DHT22;7257;52.158;9.968;2023-03-01T01:13:36;-0.70;99.90
14347;DHT22;7257;52.158;9.968;2023-03-01T01:13:58;-0.70;99.90
14347;DHT22;7257;52.158;9.968;2023-03-01T01:14:19;-0.70;99.90
14347;DHT22;7257;52.158;9.968;2023-03-01T01:14:40;-0.70;99.90
14347;DHT22;7257;52.158;9.968;2023-03-01T01:15:02;-0.70;99.90
14347;DHT22;7257;52.158;9.968;2023-03-01T01:15:23;-0.70;99.90
14347;DHT22;7257;52.158;9.968;2023-03-01T01:15:44;-0.70;99.90
14347;DHT22;7257;52.158;9.968;2023-03-01T01:16:06;-0.70;99.90
14347;DHT22;7257;52.158;9.968;2023-03-01T01:16:27;-0.70;99.90
14347;DHT22;7257;52.158;9.968;2023-03-01T01:16:49;-0.70;99.90
14347;DHT22;7257;52.158;9.968;2023-03-01T01:17:10;-0.70;99.90
14347;DHT22;7257;52.158;9.968;2023-03-01T01:17:31;-0.70;99.90
14347;DHT22;7257;52.158;9.968;2023-03-01T01:17:52;-0.70;99.90
14347;DHT22;7257;52.158;9.968;2023-03-01T01:18:14;-0.70;99.90
14347;DHT22;7257;52.158;9.968;2023-03-01T01:18:35;-0.70;99.90
14347;DHT22;7257;52.158;9.968;2023-03-01T01:18:57;-0.60;99.90
14347;DHT22;7257;52.158;9.968;2023-03-01T01:19:18;-0.60;99.90
14347;DHT22;7257;52.158;9.968;2023-03-01T01:19:39;-0.70;99.90
14347;DHT22;7257;52.158;9.968;2023-03-01T01:20:00;-0.60;99.90
14347;DHT22;7257;52.158;9.968;2023-03-01T01:20:21;-0.60;99.90
14347;DHT22;7257;52.158;9.968;2023-03-01T01:20:42;-0.70;99.90
14347;DHT22;7257;52.158;9.968;2023-03-01T01:21:05;-0.70;99.90
14347;DHT22;7257;52.158;9.968;2023-03-01T01:21:27;-0.60;99.90
14347;DHT22;7257;52.158;9.968;2023-03-01T01:21:50;-0.60;99.90
14347;DHT22;7257;52.158;9.968;2023-03-01T01:22:11;-0.60;99.90
14347;DHT22;7257;52.158;9.968;2023-03-01T01:22:32;-0.60;99.90
14347;DHT22;7257;52.158;9.968;2023-03-01T01:22:52;-0.60;99.90
14347;DHT22;7257;52.158;9.968;2023-03-01T01:23:14;-0.60;99.90
14347;DHT22;7257;52.158;9.968;2023-03-01T01:23:36;-0.60;99.90
14347;DHT22;7257;52.158;9.968;2023-03-01T01:23:58;-0.60;99.90
14347;DHT22;7257;52.158;9.968;2023-03-01T01:24:19;-0.60;99.90
14347;DHT22;7257;52.158;9.968;2023-03-01T01:24:41;-0.60;99.90
14347;DHT22;7257;52.158;9.968;2023-03-01T01:25:02;-0.60;99.90
14347;DHT22;7257;52.158;9.968;2023-03-01T01:25:23;-0.60;99.90
14347;DHT22;7257;52.158;9.968;2023-03-01T01:25:45;-0.60;99.90
14347;DHT22;7257;52.158;9.968;2023-03-01T01:26:07;-0.60;99.90
14347;DHT22;7257;52.158;9.968;2023-03-01T01:26:32;-0.60;99.90
14347;DHT22;7257;52.158;9.968;2023-03-01T01:26:53;-0.60;99.90
14347;DHT22;7257;52.158;9.968;2023-03-01T01:27:14;-0.60;99.90
14347;DHT22;7257;52.158;9.968;2023-03-01T01:27:35;-0.60;99.90
14347;DHT22;7257;52.158;9.968;2023-03-01T01:27:56;-0.60;99.90
14347;DHT22;7257;52.158;9.968;2023-03-01T01:28:17;-0.60;99.90
14347;DHT22;7257;52.158;9.968;2023-03-01T01:28:38;-0.60;99.90
14347;DHT22;7257;52.158;9.968;2023-03-01T01:29:00;-0.60;99.90
14347;DHT22;7257;52.158;9.968;2023-03-01T01:29:21;-0.60;99.90
14347;DHT22;7257;52.158;9.968;2023-03-01T01:29:43;-0.60;99.90
14347;DHT22;7257;52.158;9.968;2023-03-01T01:30:05;-0.60;99.90
14347;DHT22;7257;52.158;9.968;2023-03-01T01:30:26;-0.60;99.90
14347;DHT22;7257;52.158;9.968;2023-03-01T01:30:46;-0.60;99.90
14347;DHT22;7257;52.158;9.968;2023-03-01T01:31:07;-0.50;99.90
14347;DHT22;7257;52.158;9.968;2023-03-01T01:31:30;-0.60;99.90
14347;DHT22;7257;52.158;9.968;2023-03-01T01:31:51;-0.60;99.90
14347;DHT22;7257;52.158;9.968;2023-03-01T01:32:12;-0.60;99.90
14347;DHT22;7257;52.158;9.968;2023-03-01T01:32:33;-0.50;99.90
14347;DHT22;7257;52.158;9.968;2023-03-01T01:32:55;-0.60;99.90
14347;DHT22;7257;52.158;9.968;2023-03-01T01:33:16;-0.60;99.90
14347;DHT22;7257;52.158;9.968;2023-03-01T01:33:37;-0.60;99.90
14347;DHT22;7257;52.158;9.968;2023-03-01T01:33:59;-0.60;99.90
14347;DHT22;7257;52.158;9.968;2023-03-01T01:34:22;-0.60;99.90
14347;DHT22;7257;52.158;9.968;2023-03-01T01:34:42;-0.60;99.90
14347;DHT22;7257;52.158;9.968;2023-03-01T01:35:04;-0.60;99.90
14347;DHT22;7257;52.158;9.968;2023-03-01T01:35:24;-0.60;99.90
14347;DHT22;7257;52.158;9.968;2023-03-01T01:35:46;-0.60;99.90
14347;DHT22;7257;52.158;9.968;2023-03-01T01:36:08;-0.60;99.90
14347;DHT22;7257;52.158;9.968;2023-03-01T01:36:31;-0.60;99.90
14347;DHT22;7257;52.158;9.968;2023-03-01T01:36:53;-0.60;99.90
14347;DHT22;7257;52.158;9.968;2023-03-01T01:37:14;-0.60;99.90
14347;DHT22;7257;52.158;9.968;2023-03-01T01:37:36;-0.60;99.90
14347;DHT22;7257;52.158;9.968;2023-03-01T01:37:57;-0.60;99.90
14347;DHT22;7257;52.158;9.968;2023-03-01T01:38:17;-0.60;99.90
14347;DHT22;7257;52.158;9.968;2023-03-01T01:38:38;-0.60;99.90
14347;DHT22;7257;52.158;9.968;2023-03-01T01:39:00;-0.60;99.90
14347;DHT22;7257;52.158;9.968;2023-03-01T01:39:22;-0.60;99.90
14347;DHT22;7257;52.158;9.968;2023-03-01T01:39:43;-0.60;99.90
14347;DHT22;7257;52.158;9.968;2023-03-01T01:40:05;-0.60;99.90
14347;DHT22;7257;52.158;9.968;2023-03-01T01:40:26;-0.60;99.90
14347;DHT22;7257;52.158;9.968;2023-03-01T01:40:49;-0.60;99.90
14347;DHT22;7257;52.158;9.968;2023-03-01T01:41:12;-0.60;99.90
14347;DHT22;7257;52.158;9.968;2023-03-01T01:41:33;-0.60;99.90
14347;DHT22;7257;52.158;9.968;2023-03-01T01:41:54;-0.60;99.90
14347;DHT22;7257;52.158;9.968;2023-03-01T01:42:16;-0.60;99.90
14347;DHT22;7257;52.158;9.968;2023-03-01T01:42:38;-0.70;99.90
14347;DHT22;7257;52.158;9.968;2023-03-01T01:42:59;-0.70;99.90
14347;DHT22;7257;52.158;9.968;2023-03-01T01:43:22;-0.70;99.90
14347;DHT22;7257;52.158;9.968;2023-03-01T01:43:45;-0.70;99.90
14347;DHT22;7257;52.158;9.968;2023-03-01T01:44:14;-0.70;99.90
14347;DHT22;7257;52.158;9.968;2023-03-01T01:44:35;-0.70;99.90
14347;DHT22;7257;52.158;9.968;2023-03-01T01:45:32;-0.70;99.90
14347;DHT22;7257;52.158;9.968;2023-03-01T01:45:55;-0.70;99.90
14347;DHT22;7257;52.158;9.968;2023-03-01T01:46:23;-0.70;99.90
14347;DHT22;7257;52.158;9.968;2023-03-01T01:46:50;-0.90;99.90
14347;DHT22;7257;52.158;9.968;2023-03-01T01:47:15;-0.80;99.90
14347;DHT22;7257;52.158;9.968;2023-03-01T01:47:39;-0.80;99.90
14347;DHT22;7257;52.158;9.968;2023-03-01T01:48:03;-0.80;99.90
14347;DHT22;7257;52.158;9.968;2023-03-01T01:48:29;-0.80;99.90
14347;DHT22;7257;52.158;9.968;2023-03-01T01:49:02;-0.80;99.90
14347;DHT22;7257;52.158;9.968;2023-03-01T01:49:29;-0.80;99.90
14347;DHT22;7257;52.158;9.968;2023-03-01T01:49:54;-0.80;99.90
14347;DHT22;7257;52.158;9.968;2023-03-01T01:50:18;-0.80;99.90
14347;DHT22;7257;52.158;9.968;2023-03-01T01:50:40;-0.80;99.90
14347;DHT22;7257;52.158;9.968;2023-03-01T01:51:05;-0.80;99.90
14347;DHT22;7257;52.158;9.968;2023-03-01T01:51:31;-0.90;99.90
14347;DHT22;7257;52.158;9.968;2023-03-01T01:52:04;-0.80;99.90
14347;DHT22;7257;52.158;9.968;2023-03-01T01:52:31;-0.90;99.90
14347;DHT22;7257;52.158;9.968;2023-03-01T01:52:53;-0.90;99.90
14347;DHT22;7257;52.158;9.968;2023-03-01T01:53:17;-1.00;99.90
14347;DHT22;7257;52.158;9.968;2023-03-01T01:53:40;-1.00;99.90
14347;DHT22;7257;52.158;9.968;2023-03-01T01:54:02;-0.90;99.90
14347;DHT22;7257;52.158;9.968;2023-03-01T01:54:26;-0.90;99.90
14347;DHT22;7257;52.158;9.968;2023-03-01T01:54:51;-0.90;99.90
14347;DHT22;7257;52.158;9.968;2023-03-01T01:55:16;-0.80;99.90
14347;DHT22;7257;52.158;9.968;2023-03-01T01:55:45;-0.80;99.90
14347;DHT22;7257;52.158;9.968;2023-03-01T01:56:09;-0.80;99.90
14347;DHT22;7257;52.158;9.968;2023-03-01T01:56:32;-0.80;99.90
14347;DHT22;7257;52.158;9.968;2023-03-01T01:56:57;-0.80;99.90
14347;DHT22;7257;52.158;9.968;2023-03-01T01:57:23;-0.80;99.90
14347;DHT22;7257;52.158;9.968;2023-03-01T01:57:48;-0.80;99.90
14347;DHT22;7257;52.158;9.968;2023-03-01T01:58:11;-0.90;99.90
14347;DHT22;7257;52.158;9.968;2023-03-01T01:58:33;-0.90;99.90
14347;DHT22;7257;52.158;9.968;2023-03-01T01:58:55;-0.80;99.90
14347;DHT22;7257;52.158;9.968;2023-03-01T01:59:16;-0.80;99.90
14347;DHT22;7257;52.158;9.968;2023-03-01T01:59:38;-0.80;99.90
14347;DHT22;7257;52.158;9.968;2023-03-01T02:00:11;-0.80;99.90
14347;DHT22;7257;52.158;9.968;2023-03-01T02:00:33;-0.80;98.10
14347;DHT22;7257;52.158;9.968;2023-03-01T02:00:54;-0.80;93.80
14347;DHT22;7257;52.158;9.968;2023-03-01T02:01:15;-0.80;96.20
14347;DHT22;7257;52.158;9.968;2023-03-01T02:01:36;-0.90;99.90
14347;DHT22;7257;52.158;9.968;2023-03-01T02:01:59;-0.80;99.90
14347;DHT22;7257;52.158;9.968;2023-03-01T02:02:21;-0.80;99.90
14347;DHT22;7257;52.158;9.968;2023-03-01T02:02:43;-0.80;99.90
14347;DHT22;7257;52.158;9.968;2023-03-01T02:03:09;-0.80;99.90
14347;DHT22;7257;52.158;9.968;2023-03-01T02:03:32;-0.90;95.80
14347;DHT22;7257;52.158;9.968;2023-03-01T02:03:57;-0.80;99.90
14347;DHT22;7257;52.158;9.968;2023-03-01T02:04:19;-0.90;99.70
14347;DHT22;7257;52.158;9.968;2023-03-01T02:04:42;-0.80;99.90
14347;DHT22;7257;52.158;9.968;2023-03-01T02:05:12;-0.80;99.90
14347;DHT22;7257;52.158;9.968;2023-03-01T02:05:39;-0.90;99.90
14347;DHT22;7257;52.158;9.968;2023-03-01T02:06:06;-1.00;99.90
14347;DHT22;7257;52.158;9.968;2023-03-01T02:06:32;-1.00;99.90
14347;DHT22;7257;52.158;9.968;2023-03-01T02:06:58;-1.00;99.90
14347;DHT22;7257;52.158;9.968;2023-03-01T02:07:22;-1.00;99.90
14347;DHT22;7257;52.158;9.968;2023-03-01T02:07:44;-1.00;99.90
14347;DHT22;7257;52.158;9.968;2023-03-01T02:08:08;-1.00;99.90
14347;DHT22;7257;52.158;9.968;2023-03-01T02:08:32;-1.00;99.90
14347;DHT22;7257;52.158;9.968;2023-03-01T02:08:54;-0.90;99.90
14347;DHT22;7257;52.158;9.968;2023-03-01T02:09:16;-0.90;99.90
14347;DHT22;7257;52.158;9.968;2023-03-01T02:09:42;-0.90;99.90
14347;DHT22;7257;52.158;9.968;2023-03-01T02:10:06;-0.90;99.90
14347;DHT22;7257;52.158;9.968;2023-03-01T02:10:28;-0.90;96.10
14347;DHT22;7257;52.158;9.968;2023-03-01T02:10:51;-0.80;99.90
14347;DHT22;7257;52.158;9.968;2023-03-01T02:11:13;-0.90;99.90
14347;DHT22;7257;52.158;9.968;2023-03-01T02:11:36;-0.90;99.90
14347;DHT22;7257;52.158;9.968;2023-03-01T02:11:58;-0.90;99.90
14347;DHT22;7257;52.158;9.968;2023-03-01T02:12:23;-0.90;99.90
14347;DHT22;7257;52.158;9.968;2023-03-01T02:12:44;-1.00;99.90
14347;DHT22;7257;52.158;9.968;2023-03-01T02:13:06;-1.00;99.90
14347;DHT22;7257;52.158;9.968;2023-03-01T02:13:28;-1.00;99.90
14347;DHT22;7257;52.158;9.968;2023-03-01T02:13:50;-1.00;99.90
14347;DHT22;7257;52.158;9.968;2023-03-01T02:14:11;-1.00;99.90
14347;DHT22;7257;52.158;9.968;2023-03-01T02:14:32;-1.00;99.90
14347;DHT22;7257;52.158;9.968;2023-03-01T02:14:53;-0.90;99.90
14347;DHT22;7257;52.158;9.968;2023-03-01T02:15:15;-1.00;99.90
14347;DHT22;7257;52.158;9.968;2023-03-01T02:15:37;-1.00;99.90
14347;DHT22;7257;52.158;9.968;2023-03-01T02:15:59;-1.00;99.90
14347;DHT22;7257;52.158;9.968;2023-03-01T02:16:21;-1.00;99.90
14347;DHT22;7257;52.158;9.968;2023-03-01T02:16:43;-0.90;99.90
14347;DHT22;7257;52.158;9.968;2023-03-01T02:17:04;-0.90;99.90
14347;DHT22;7257;52.158;9.968;2023-03-01T02:17:25;-1.00;99.90
14347;DHT22;7257;52.158;9.968;2023-03-01T02:17:46;-1.10;99.90
14347;DHT22;7257;52.158;9.968;2023-03-01T02:18:08;-1.10;99.90
14347;DHT22;7257;52.158;9.968;2023-03-01T02:18:31;-1.00;95.70
14347;DHT22;7257;52.158;9.968;2023-03-01T02:18:52;-1.10;96.60
14347;DHT22;7257;52.158;9.968;2023-03-01T02:19:23;-1.00;99.90
14347;DHT22;7257;52.158;9.968;2023-03-01T02:19:58;-1.00;99.90
14347;DHT22;7257;52.158;9.968;2023-03-01T02:20:26;-1.00;99.90
14347;DHT22;7257;52.158;9.968;2023-03-01T02:21:05;-1.00;99.90
14347;DHT22;7257;52.158;9.968;2023-03-01T02:21:38;-1.00;99.10
14347;DHT22;7257;52.158;9.968;2023-03-01T02:22:10;-1.10;97.70
14347;DHT22;7257;52.158;9.968;2023-03-01T02:22:34;-1.00;99.90
14347;DHT22;7257;52.158;9.968;2023-03-01T02:23:00;-1.10;99.90
14347;DHT22;7257;52.158;9.968;2023-03-01T02:23:21;-1.00;99.90
14347;DHT22;7257;52.158;9.968;2023-03-01T02:23:42;-1.00;93.00
14347;DHT22;7257;52.158;9.968;2023-03-01T02:24:10;-1.00;99.90